sensor_id;sensor_type;location;lat;lon;timestamp;temperature;humidity
17452;DHT22;8843;48.838;9.324;2022-08-11T00:02:27;24.90;48.40
17452;DHT22;8843;48.838;9.324;2022-08-11T00:05:00;24.90;48.40
17452;DHT22;8843;48.838;9.324;2022-08-11T00:07:27;24.90;48.80
17452;DHT22;8843;48.838;9.324;2022-08-11T00:09:55;24.80;48.40
17452;DHT22;8843;48.838;9.324;2022-08-11T00:12:24;24.80;48.70
17452;DHT22;8843;48.838;9.324;2022-08-11T00:14:56;24.80;48.60
17452;DHT22;8843;48.838;9.324;2022-08-11T00:17:27;24.80;48.40
17452;DHT22;8843;48.838;9.324;2022-08-11T00:20:02;24.80;48.50
17452;DHT22;8843;48.838;9.324;2022-08-11T00:22:30;24.80;48.60
17452;DHT22;8843;48.838;9.324;2022-08-11T00:24:59;24.80;48.60
17452;DHT22;8843;48.838;9.324;2022-08-11T00:27:36;24.80;48.60
17452;DHT22;8843;48.838;9.324;2022-08-11T00:30:04;24.80;48.60
17452;DHT22;8843;48.838;9.324;2022-08-11T00:32:32;24.80;48.60
17452;DHT22;8843;48.838;9.324;2022-08-11T00:35:00;24.80;48.80
17452;DHT22;8843;48.838;9.324;2022-08-11T00:37:28;24.80;48.80
17452;DHT22;8843;48.838;9.324;2022-08-11T00:39:56;24.80;48.80
17452;DHT22;8843;48.838;9.324;2022-08-11T00:45:22;24.70;48.80
17452;DHT22;8843;48.838;9.324;2022-08-11T00:48:00;24.70;48.60
17452;DHT22;8843;48.838;9.324;2022-08-11T00:50:41;24.70;48.60
17452;DHT22;8843;48.838;9.324;2022-08-11T00:53:36;24.70;49.10
17452;DHT22;8843;48.838;9.324;2022-08-11T00:59:39;24.70;49.10
17452;DHT22;8843;48.838;9.324;2022-08-11T01:02:17;24.70;49.00
17452;DHT22;8843;48.838;9.324;2022-08-11T01:05:13;24.70;49.10
17452;DHT22;8843;48.838;9.324;2022-08-11T01:08:16;24.70;49.10
17452;DHT22;8843;48.838;9.324;2022-08-11T01:11:09;24.70;49.10
17452;DHT22;8843;48.838;9.324;2022-08-11T01:14:05;24.70;49.10
17452;DHT22;8843;48.838;9.324;2022-08-11T01:20:16;24.70;49.20
17452;DHT22;8843;48.838;9.324;2022-08-11T01:23:23;24.60;48.90
17452;DHT22;8843;48.838;9.324;2022-08-11T01:29:32;24.60;49.00
17452;DHT22;8843;48.838;9.324;2022-08-11T01:35:58;24.60;49.20
17452;DHT22;8843;48.838;9.324;2022-08-11T01:39:03;24.60;49.00
17452;DHT22;8843;48.838;9.324;2022-08-11T01:41:53;24.60;49.20
17452;DHT22;8843;48.838;9.324;2022-08-11T01:45:16;24.60;49.00
17452;DHT22;8843;48.838;9.324;2022-08-11T01:48:07;24.60;49.00
17452;DHT22;8843;48.838;9.324;2022-08-11T01:50:57;24.60;49.20
17452;DHT22;8843;48.838;9.324;2022-08-11T01:53:33;24.60;49.00
17452;DHT22;8843;48.838;9.324;2022-08-11T01:56:11;24.60;49.20
17452;DHT22;8843;48.838;9.324;2022-08-11T01:58:47;24.60;49.10
17452;DHT22;8843;48.838;9.324;2022-08-11T02:01:33;24.60;49.50
17452;DHT22;8843;48.838;9.324;2022-08-11T02:04:13;24.50;49.30
17452;DHT22;8843;48.838;9.324;2022-08-11T02:06:49;24.50;49.10
17452;DHT22;8843;48.838;9.324;2022-08-11T02:09:32;24.50;49.50
17452;DHT22;8843;48.838;9.324;2022-08-11T02:12:14;24.50;49.40
17452;DHT22;8843;48.838;9.324;2022-08-11T02:14:45;24.50;49.40
17452;DHT22;8843;48.838;9.324;2022-08-11T02:17:18;24.50;49.20
17452;DHT22;8843;48.838;9.324;2022-08-11T02:19:54;24.50;49.10
17452;DHT22;8843;48.838;9.324;2022-08-11T02:22:51;24.50;48.70
17452;DHT22;8843;48.838;9.324;2022-08-11T02:25:45;24.50;48.80
17452;DHT22;8843;48.838;9.324;2022-08-11T02:28:20;24.50;48.80
17452;DHT22;8843;48.838;9.324;2022-08-11T02:30:56;24.40;48.70
17452;DHT22;8843;48.838;9.324;2022-08-11T02:33:41;24.40;48.60
17452;DHT22;8843;48.838;9.324;2022-08-11T02:36:14;24.40;48.70
17452;DHT22;8843;48.838;9.324;2022-08-11T02:38:50;24.40;49.40
17452;DHT22;8843;48.838;9.324;2022-08-11T02:41:24;24.40;48.70
17452;DHT22;8843;48.838;9.324;2022-08-11T02:44:23;24.40;48.60
17452;DHT22;8843;48.838;9.324;2022-08-11T02:47:01;24.40;48.60
17452;DHT22;8843;48.838;9.324;2022-08-11T02:49:45;24.40;48.70
17452;DHT22;8843;48.838;9.324;2022-08-11T02:52:29;24.40;48.60
17452;DHT22;8843;48.838;9.324;2022-08-11T02:55:20;24.40;48.70
17452;DHT22;8843;48.838;9.324;2022-08-11T02:57:52;24.40;48.60
17452;DHT22;8843;48.838;9.324;2022-08-11T03:00:20;24.40;48.60
17452;DHT22;8843;48.838;9.324;2022-08-11T03:03:11;24.40;48.70
17452;DHT22;8843;48.838;9.324;2022-08-11T03:05:48;24.40;48.70
17452;DHT22;8843;48.838;9.324;2022-08-11T03:08:35;24.30;48.60
17452;DHT22;8843;48.838;9.324;2022-08-11T03:11:11;24.30;48.70
17452;DHT22;8843;48.838;9.324;2022-08-11T03:14:08;24.30;48.60
17452;DHT22;8843;48.838;9.324;2022-08-11T03:16:59;24.30;48.80
17452;DHT22;8843;48.838;9.324;2022-08-11T03:19:45;24.30;48.70
17452;DHT22;8843;48.838;9.324;2022-08-11T03:22:21;24.30;48.70
17452;DHT22;8843;48.838;9.324;2022-08-11T03:24:56;24.30;48.80
17452;DHT22;8843;48.838;9.324;2022-08-11T03:27:33;24.30;48.70
17452;DHT22;8843;48.838;9.324;2022-08-11T03:30:09;24.30;48.80
17452;DHT22;8843;48.838;9.324;2022-08-11T03:32:45;24.30;48.80
17452;DHT22;8843;48.838;9.324;2022-08-11T03:35:39;24.30;48.80
17452;DHT22;8843;48.838;9.324;2022-08-11T03:38:09;24.30;48.80
17452;DHT22;8843;48.838;9.324;2022-08-11T03:40:46;24.30;49.20
17452;DHT22;8843;48.838;9.324;2022-08-11T03:43:53;24.20;48.90
17452;DHT22;8843;48.838;9.324;2022-08-11T03:46:31;24.20;48.80
17452;DHT22;8843;48.838;9.324;2022-08-11T03:49:26;24.20;49.50
17452;DHT22;8843;48.838;9.324;2022-08-11T03:52:07;24.20;48.90
17452;DHT22;8843;48.838;9.324;2022-08-11T03:54:46;24.20;49.10
17452;DHT22;8843;48.838;9.324;2022-08-11T04:03:56;24.20;49.20
17452;DHT22;8843;48.838;9.324;2022-08-11T04:06:55;24.20;49.10
17452;DHT22;8843;48.838;9.324;2022-08-11T04:10:19;24.10;49.20
17452;DHT22;8843;48.838;9.324;2022-08-11T04:13:19;24.10;49.00
17452;DHT22;8843;48.838;9.324;2022-08-11T04:16:28;24.10;49.00
17452;DHT22;8843;48.838;9.324;2022-08-11T04:22:25;24.10;49.20
17452;DHT22;8843;48.838;9.324;2022-08-11T04:25:28;24.10;49.30
17452;DHT22;8843;48.838;9.324;2022-08-11T04:31:18;24.10;49.50
17452;DHT22;8843;48.838;9.324;2022-08-11T04:34:16;24.10;49.60
17452;DHT22;8843;48.838;9.324;2022-08-11T04:37:06;24.10;49.70
17452;DHT22;8843;48.838;9.324;2022-08-11T04:40:26;24.00;49.60
17452;DHT22;8843;48.838;9.324;2022-08-11T04:43:35;24.00;49.70
17452;DHT22;8843;48.838;9.324;2022-08-11T04:49:32;23.60;44.90
17452;DHT22;8843;48.838;9.324;2022-08-11T04:52:41;23.00;45.50
17452;DHT22;8843;48.838;9.324;2022-08-11T04:55:44;22.40;46.40
17452;DHT22;8843;48.838;9.324;2022-08-11T04:58:48;22.00;47.20
17452;DHT22;8843;48.838;9.324;2022-08-11T05:01:45;21.90;47.50
17452;DHT22;8843;48.838;9.324;2022-08-11T05:04:46;21.80;47.60
17452;DHT22;8843;48.838;9.324;2022-08-11T05:10:54;21.70;47.70
17452;DHT22;8843;48.838;9.324;2022-08-11T05:13:27;21.70;47.90
17452;DHT22;8843;48.838;9.324;2022-08-11T05:16:16;21.70;48.20
17452;DHT22;8843;48.838;9.324;2022-08-11T05:19:02;21.70;48.20
17452;DHT22;8843;48.838;9.324;2022-08-11T05:21:53;21.70;48.30
17452;DHT22;8843;48.838;9.324;2022-08-11T05:24:42;21.70;48.60
17452;DHT22;8843;48.838;9.324;2022-08-11T05:27:32;21.90;49.10
17452;DHT22;8843;48.838;9.324;2022-08-11T05:30:19;22.10;52.30
17452;DHT22;8843;48.838;9.324;2022-08-11T05:33:16;22.70;51.30
17452;DHT22;8843;48.838;9.324;2022-08-11T05:36:10;22.80;50.80
17452;DHT22;8843;48.838;9.324;2022-08-11T05:38:39;22.90;50.90
17452;DHT22;8843;48.838;9.324;2022-08-11T05:41:32;23.10;50.80
17452;DHT22;8843;48.838;9.324;2022-08-11T05:44:17;23.20;50.70
17452;DHT22;8843;48.838;9.324;2022-08-11T05:47:02;23.30;50.80
17452;DHT22;8843;48.838;9.324;2022-08-11T05:49:49;23.30;50.80
17452;DHT22;8843;48.838;9.324;2022-08-11T05:52:34;23.40;50.80
17452;DHT22;8843;48.838;9.324;2022-08-11T05:55:21;23.40;50.90
17452;DHT22;8843;48.838;9.324;2022-08-11T05:58:07;23.40;50.80
17452;DHT22;8843;48.838;9.324;2022-08-11T06:00:41;23.40;50.80
17452;DHT22;8843;48.838;9.324;2022-08-11T06:03:08;23.50;51.50
17452;DHT22;8843;48.838;9.324;2022-08-11T06:05:37;23.50;50.90
17452;DHT22;8843;48.838;9.324;2022-08-11T06:08:06;22.80;48.30
17452;DHT22;8843;48.838;9.324;2022-08-11T06:10:36;23.00;50.90
17452;DHT22;8843;48.838;9.324;2022-08-11T06:13:05;23.20;50.20
17452;DHT22;8843;48.838;9.324;2022-08-11T06:15:42;23.20;50.40
17452;DHT22;8843;48.838;9.324;2022-08-11T06:18:10;23.30;50.50
17452;DHT22;8843;48.838;9.324;2022-08-11T06:20:53;23.30;50.50
17452;DHT22;8843;48.838;9.324;2022-08-11T06:23:35;23.40;50.50
17452;DHT22;8843;48.838;9.324;2022-08-11T06:26:12;23.40;50.50
17452;DHT22;8843;48.838;9.324;2022-08-11T06:28:42;23.40;50.50
17452;DHT22;8843;48.838;9.324;2022-08-11T06:31:12;23.40;50.50
17452;DHT22;8843;48.838;9.324;2022-08-11T06:33:52;23.50;50.50
17452;DHT22;8843;48.838;9.324;2022-08-11T06:36:25;23.50;50.60
17452;DHT22;8843;48.838;9.324;2022-08-11T06:39:01;23.50;50.60
17452;DHT22;8843;48.838;9.324;2022-08-11T06:41:43;23.50;50.60
17452;DHT22;8843;48.838;9.324;2022-08-11T06:44:23;23.50;50.60
17452;DHT22;8843;48.838;9.324;2022-08-11T06:46:53;23.50;50.60
17452;DHT22;8843;48.838;9.324;2022-08-11T06:49:33;23.50;50.60
17452;DHT22;8843;48.838;9.324;2022-08-11T06:52:19;23.50;51.30
17452;DHT22;8843;48.838;9.324;2022-08-11T06:54:55;23.50;50.70
17452;DHT22;8843;48.838;9.324;2022-08-11T06:57:32;23.50;50.80
17452;DHT22;8843;48.838;9.324;2022-08-11T07:00:19;23.50;50.80
17452;DHT22;8843;48.838;9.324;2022-08-11T07:02:58;23.50;50.80
17452;DHT22;8843;48.838;9.324;2022-08-11T07:05:39;23.50;50.80
17452;DHT22;8843;48.838;9.324;2022-08-11T07:14:54;23.60;50.60
17452;DHT22;8843;48.838;9.324;2022-08-11T07:17:43;23.50;50.80
17452;DHT22;8843;48.838;9.324;2022-08-11T07:20:14;23.50;50.90
17452;DHT22;8843;48.838;9.324;2022-08-11T07:23:02;23.50;51.00
17452;DHT22;8843;48.838;9.324;2022-08-11T07:25:51;23.60;51.10
17452;DHT22;8843;48.838;9.324;2022-08-11T07:28:34;23.60;50.90
17452;DHT22;8843;48.838;9.324;2022-08-11T07:31:29;23.60;50.90
17452;DHT22;8843;48.838;9.324;2022-08-11T07:34:12;23.60;50.90
17452;DHT22;8843;48.838;9.324;2022-08-11T07:36:46;23.60;50.90
17452;DHT22;8843;48.838;9.324;2022-08-11T07:39:19;23.60;50.80
17452;DHT22;8843;48.838;9.324;2022-08-11T07:41:46;23.60;50.80
17452;DHT22;8843;48.838;9.324;2022-08-11T07:44:15;23.60;50.80
17452;DHT22;8843;48.838;9.324;2022-08-11T07:46:45;23.70;51.00
17452;DHT22;8843;48.838;9.324;2022-08-11T07:49:31;23.70;50.80
17452;DHT22;8843;48.838;9.324;2022-08-11T07:52:17;23.70;50.80
17452;DHT22;8843;48.838;9.324;2022-08-11T07:55:00;23.70;51.00
17452;DHT22;8843;48.838;9.324;2022-08-11T07:57:28;23.80;51.10
17452;DHT22;8843;48.838;9.324;2022-08-11T08:00:14;23.80;50.70
17452;DHT22;8843;48.838;9.324;2022-08-11T08:03:01;23.90;50.90
17452;DHT22;8843;48.838;9.324;2022-08-11T08:05:47;23.80;50.40
17452;DHT22;8843;48.838;9.324;2022-08-11T08:08:32;23.90;50.40
17452;DHT22;8843;48.838;9.324;2022-08-11T08:11:19;23.90;50.20
17452;DHT22;8843;48.838;9.324;2022-08-11T08:14:05;23.90;50.20
17452;DHT22;8843;48.838;9.324;2022-08-11T08:16:50;24.00;50.20
17452;DHT22;8843;48.838;9.324;2022-08-11T08:19:37;24.00;49.90
17452;DHT22;8843;48.838;9.324;2022-08-11T08:22:06;24.00;49.80
17452;DHT22;8843;48.838;9.324;2022-08-11T08:24:33;24.00;49.70
17452;DHT22;8843;48.838;9.324;2022-08-11T08:27:00;24.00;50.30
17452;DHT22;8843;48.838;9.324;2022-08-11T08:29:31;24.10;49.50
17452;DHT22;8843;48.838;9.324;2022-08-11T08:32:17;24.10;48.70
17452;DHT22;8843;48.838;9.324;2022-08-11T08:34:48;24.20;49.20
17452;DHT22;8843;48.838;9.324;2022-08-11T08:37:18;24.10;49.10
17452;DHT22;8843;48.838;9.324;2022-08-11T08:39:46;24.20;48.80
17452;DHT22;8843;48.838;9.324;2022-08-11T08:42:19;24.20;49.30
17452;DHT22;8843;48.838;9.324;2022-08-11T08:44:52;24.10;49.40
17452;DHT22;8843;48.838;9.324;2022-08-11T08:47:24;24.20;48.70
17452;DHT22;8843;48.838;9.324;2022-08-11T08:50:05;24.20;49.20
17452;DHT22;8843;48.838;9.324;2022-08-11T08:52:36;24.10;49.10
17452;DHT22;8843;48.838;9.324;2022-08-11T08:55:07;24.10;48.80
17452;DHT22;8843;48.838;9.324;2022-08-11T08:57:36;24.20;48.30
17452;DHT22;8843;48.838;9.324;2022-08-11T09:00:06;24.30;48.40
17452;DHT22;8843;48.838;9.324;2022-08-11T09:02:34;24.30;48.50
17452;DHT22;8843;48.838;9.324;2022-08-11T09:05:04;24.30;48.60
17452;DHT22;8843;48.838;9.324;2022-08-11T09:07:32;24.40;48.40
17452;DHT22;8843;48.838;9.324;2022-08-11T09:09:59;24.40;49.10
17452;DHT22;8843;48.838;9.324;2022-08-11T09:12:28;24.40;48.80
17452;DHT22;8843;48.838;9.324;2022-08-11T09:14:57;24.60;48.40
17452;DHT22;8843;48.838;9.324;2022-08-11T09:17:30;24.60;48.60
17452;DHT22;8843;48.838;9.324;2022-08-11T09:20:02;24.70;48.70
17452;DHT22;8843;48.838;9.324;2022-08-11T09:22:32;24.90;47.60
17452;DHT22;8843;48.838;9.324;2022-08-11T09:25:18;25.00;47.30
17452;DHT22;8843;48.838;9.324;2022-08-11T09:28:04;25.00;47.50
17452;DHT22;8843;48.838;9.324;2022-08-11T09:30:32;25.10;47.60
17452;DHT22;8843;48.838;9.324;2022-08-11T09:33:01;25.10;47.40
17452;DHT22;8843;48.838;9.324;2022-08-11T09:35:33;25.30;47.10
17452;DHT22;8843;48.838;9.324;2022-08-11T09:38:04;25.30;47.70
17452;DHT22;8843;48.838;9.324;2022-08-11T09:40:50;25.60;47.10
17452;DHT22;8843;48.838;9.324;2022-08-11T09:43:18;25.60;46.90
17452;DHT22;8843;48.838;9.324;2022-08-11T09:46:04;25.50;46.90
17452;DHT22;8843;48.838;9.324;2022-08-11T09:48:36;25.60;46.90
17452;DHT22;8843;48.838;9.324;2022-08-11T09:51:06;25.90;45.80
17452;DHT22;8843;48.838;9.324;2022-08-11T09:53:37;26.00;44.00
17452;DHT22;8843;48.838;9.324;2022-08-11T09:56:06;25.80;45.30
17452;DHT22;8843;48.838;9.324;2022-08-11T09:58:47;25.90;45.80
17452;DHT22;8843;48.838;9.324;2022-08-11T10:01:16;26.00;45.20
17452;DHT22;8843;48.838;9.324;2022-08-11T10:03:55;26.10;45.00
17452;DHT22;8843;48.838;9.324;2022-08-11T10:06:25;26.20;44.90
17452;DHT22;8843;48.838;9.324;2022-08-11T10:09:15;26.50;44.70
17452;DHT22;8843;48.838;9.324;2022-08-11T10:11:44;26.60;44.00
17452;DHT22;8843;48.838;9.324;2022-08-11T10:14:11;26.60;43.20
17452;DHT22;8843;48.838;9.324;2022-08-11T10:16:56;27.10;42.70
17452;DHT22;8843;48.838;9.324;2022-08-11T10:19:23;27.10;43.30
17452;DHT22;8843;48.838;9.324;2022-08-11T10:21:52;27.00;43.50
17452;DHT22;8843;48.838;9.324;2022-08-11T10:24:36;27.20;43.20
17452;DHT22;8843;48.838;9.324;2022-08-11T10:27:20;27.10;43.10
17452;DHT22;8843;48.838;9.324;2022-08-11T10:29:49;27.50;43.00
17452;DHT22;8843;48.838;9.324;2022-08-11T10:32:34;27.40;42.00
17452;DHT22;8843;48.838;9.324;2022-08-11T10:35:31;27.70;42.40
17452;DHT22;8843;48.838;9.324;2022-08-11T10:37:59;27.60;42.40
17452;DHT22;8843;48.838;9.324;2022-08-11T10:40:28;27.50;42.30
17452;DHT22;8843;48.838;9.324;2022-08-11T10:42:59;27.80;40.60
17452;DHT22;8843;48.838;9.324;2022-08-11T10:45:29;27.90;41.70
17452;DHT22;8843;48.838;9.324;2022-08-11T10:48:14;28.10;40.70
17452;DHT22;8843;48.838;9.324;2022-08-11T10:50:46;28.30;41.30
17452;DHT22;8843;48.838;9.324;2022-08-11T10:53:32;28.40;41.40
17452;DHT22;8843;48.838;9.324;2022-08-11T10:56:19;28.50;42.10
17452;DHT22;8843;48.838;9.324;2022-08-11T10:59:04;28.20;41.30
17452;DHT22;8843;48.838;9.324;2022-08-11T11:01:36;28.30;41.10
17452;DHT22;8843;48.838;9.324;2022-08-11T11:04:05;28.70;40.10
17452;DHT22;8843;48.838;9.324;2022-08-11T11:06:55;29.00;39.30
17452;DHT22;8843;48.838;9.324;2022-08-11T11:09:28;29.60;38.90
17452;DHT22;8843;48.838;9.324;2022-08-11T11:12:02;29.60;38.80
17452;DHT22;8843;48.838;9.324;2022-08-11T11:14:49;29.40;39.60
17452;DHT22;8843;48.838;9.324;2022-08-11T11:17:37;29.00;40.00
17452;DHT22;8843;48.838;9.324;2022-08-11T11:20:25;29.10;39.50
17452;DHT22;8843;48.838;9.324;2022-08-11T11:22:56;29.60;39.10
17452;DHT22;8843;48.838;9.324;2022-08-11T11:25:39;29.40;39.00
17452;DHT22;8843;48.838;9.324;2022-08-11T11:28:44;29.40;38.60
17452;DHT22;8843;48.838;9.324;2022-08-11T11:31:22;29.60;37.90
17452;DHT22;8843;48.838;9.324;2022-08-11T11:34:07;29.40;39.10
17452;DHT22;8843;48.838;9.324;2022-08-11T11:36:44;29.70;38.20
17452;DHT22;8843;48.838;9.324;2022-08-11T11:39:16;29.60;39.30
17452;DHT22;8843;48.838;9.324;2022-08-11T11:41:43;29.80;38.10
17452;DHT22;8843;48.838;9.324;2022-08-11T11:44:13;29.80;39.40
17452;DHT22;8843;48.838;9.324;2022-08-11T11:46:41;30.00;37.50
17452;DHT22;8843;48.838;9.324;2022-08-11T11:49:11;30.00;37.90
17452;DHT22;8843;48.838;9.324;2022-08-11T11:51:40;30.40;36.90
17452;DHT22;8843;48.838;9.324;2022-08-11T11:54:07;30.30;38.10
17452;DHT22;8843;48.838;9.324;2022-08-11T11:56:42;30.60;35.80
17452;DHT22;8843;48.838;9.324;2022-08-11T11:59:14;30.60;36.20
17452;DHT22;8843;48.838;9.324;2022-08-11T12:02:15;30.70;36.30
17452;DHT22;8843;48.838;9.324;2022-08-11T12:04:43;30.20;37.50
17452;DHT22;8843;48.838;9.324;2022-08-11T12:07:12;30.20;36.70
17452;DHT22;8843;48.838;9.324;2022-08-11T12:09:57;30.20;36.50
17452;DHT22;8843;48.838;9.324;2022-08-11T12:12:25;30.40;35.90
17452;DHT22;8843;48.838;9.324;2022-08-11T12:15:11;30.40;35.00
17452;DHT22;8843;48.838;9.324;2022-08-11T12:17:39;30.70;35.50
17452;DHT22;8843;48.838;9.324;2022-08-11T12:20:07;31.20;34.90
17452;DHT22;8843;48.838;9.324;2022-08-11T12:22:34;31.20;34.60
17452;DHT22;8843;48.838;9.324;2022-08-11T12:25:18;30.70;35.70
17452;DHT22;8843;48.838;9.324;2022-08-11T12:28:03;30.80;35.30
17452;DHT22;8843;48.838;9.324;2022-08-11T12:30:32;31.20;34.70
17452;DHT22;8843;48.838;9.324;2022-08-11T12:32:59;31.30;34.20
17452;DHT22;8843;48.838;9.324;2022-08-11T12:35:26;31.00;34.80
17452;DHT22;8843;48.838;9.324;2022-08-11T12:37:54;31.10;34.40
17452;DHT22;8843;48.838;9.324;2022-08-11T12:40:24;31.00;34.80
17452;DHT22;8843;48.838;9.324;2022-08-11T12:43:13;31.50;33.90
17452;DHT22;8843;48.838;9.324;2022-08-11T12:46:03;31.00;34.60
17452;DHT22;8843;48.838;9.324;2022-08-11T12:48:34;30.60;35.00
17452;DHT22;8843;48.838;9.324;2022-08-11T12:51:20;30.70;33.90
17452;DHT22;8843;48.838;9.324;2022-08-11T12:54:10;30.70;34.70
17452;DHT22;8843;48.838;9.324;2022-08-11T12:56:41;31.10;33.90
17452;DHT22;8843;48.838;9.324;2022-08-11T12:59:27;30.40;34.70
17452;DHT22;8843;48.838;9.324;2022-08-11T13:02:16;30.70;34.00
17452;DHT22;8843;48.838;9.324;2022-08-11T13:05:01;30.20;34.70
17452;DHT22;8843;48.838;9.324;2022-08-11T13:07:29;30.30;34.70
17452;DHT22;8843;48.838;9.324;2022-08-11T13:09:58;30.90;33.60
17452;DHT22;8843;48.838;9.324;2022-08-11T13:12:27;31.20;33.30
17452;DHT22;8843;48.838;9.324;2022-08-11T13:15:15;31.00;35.50
17452;DHT22;8843;48.838;9.324;2022-08-11T13:17:45;31.00;34.20
17452;DHT22;8843;48.838;9.324;2022-08-11T13:20:15;31.30;32.20
17452;DHT22;8843;48.838;9.324;2022-08-11T13:22:46;31.20;33.80
17452;DHT22;8843;48.838;9.324;2022-08-11T13:25:16;30.60;33.50
17452;DHT22;8843;48.838;9.324;2022-08-11T13:27:45;30.70;33.50
17452;DHT22;8843;48.838;9.324;2022-08-11T13:30:13;31.10;32.30
17452;DHT22;8843;48.838;9.324;2022-08-11T13:33:00;30.40;35.30
17452;DHT22;8843;48.838;9.324;2022-08-11T13:35:28;30.10;34.50
17452;DHT22;8843;48.838;9.324;2022-08-11T13:37:57;30.50;34.50
17452;DHT22;8843;48.838;9.324;2022-08-11T13:40:24;31.20;33.30
17452;DHT22;8843;48.838;9.324;2022-08-11T13:42:52;31.40;32.40
17452;DHT22;8843;48.838;9.324;2022-08-11T13:45:21;31.00;34.50
17452;DHT22;8843;48.838;9.324;2022-08-11T13:47:49;30.90;34.30
17452;DHT22;8843;48.838;9.324;2022-08-11T13:50:18;30.70;33.30
17452;DHT22;8843;48.838;9.324;2022-08-11T13:52:48;30.60;33.70
17452;DHT22;8843;48.838;9.324;2022-08-11T13:55:15;30.70;33.40
17452;DHT22;8843;48.838;9.324;2022-08-11T13:57:49;30.70;33.00
17452;DHT22;8843;48.838;9.324;2022-08-11T14:00:18;30.80;33.20
17452;DHT22;8843;48.838;9.324;2022-08-11T14:02:48;31.00;33.30
17452;DHT22;8843;48.838;9.324;2022-08-11T14:05:21;30.50;34.10
17452;DHT22;8843;48.838;9.324;2022-08-11T14:07:52;30.90;33.10
17452;DHT22;8843;48.838;9.324;2022-08-11T14:10:25;30.90;33.20
17452;DHT22;8843;48.838;9.324;2022-08-11T14:12:58;30.50;33.70
17452;DHT22;8843;48.838;9.324;2022-08-11T14:15:44;30.30;35.30
17452;DHT22;8843;48.838;9.324;2022-08-11T14:18:16;29.90;34.40
17452;DHT22;8843;48.838;9.324;2022-08-11T14:20:49;30.60;32.40
17452;DHT22;8843;48.838;9.324;2022-08-11T14:23:37;30.50;33.80
17452;DHT22;8843;48.838;9.324;2022-08-11T14:26:05;30.50;32.80
17452;DHT22;8843;48.838;9.324;2022-08-11T14:28:52;30.10;33.90
17452;DHT22;8843;48.838;9.324;2022-08-11T14:31:22;30.20;35.20
17452;DHT22;8843;48.838;9.324;2022-08-11T14:33:50;30.40;33.10
17452;DHT22;8843;48.838;9.324;2022-08-11T14:36:20;30.70;32.30
17452;DHT22;8843;48.838;9.324;2022-08-11T14:38:49;30.70;33.00
17452;DHT22;8843;48.838;9.324;2022-08-11T14:41:18;30.60;33.90
17452;DHT22;8843;48.838;9.324;2022-08-11T14:44:04;30.40;33.80
17452;DHT22;8843;48.838;9.324;2022-08-11T14:46:49;30.70;32.70
17452;DHT22;8843;48.838;9.324;2022-08-11T14:49:34;30.60;34.50
17452;DHT22;8843;48.838;9.324;2022-08-11T14:52:06;30.20;33.40
17452;DHT22;8843;48.838;9.324;2022-08-11T14:54:34;30.10;34.70
17452;DHT22;8843;48.838;9.324;2022-08-11T14:57:20;29.90;34.60
17452;DHT22;8843;48.838;9.324;2022-08-11T14:59:49;30.40;32.60
17452;DHT22;8843;48.838;9.324;2022-08-11T15:02:17;30.00;35.00
17452;DHT22;8843;48.838;9.324;2022-08-11T15:05:04;30.00;34.00
17452;DHT22;8843;48.838;9.324;2022-08-11T15:07:33;30.20;33.20
17452;DHT22;8843;48.838;9.324;2022-08-11T15:10:02;30.00;36.50
17452;DHT22;8843;48.838;9.324;2022-08-11T15:12:30;30.10;32.80
17452;DHT22;8843;48.838;9.324;2022-08-11T15:14:58;30.10;35.10
17452;DHT22;8843;48.838;9.324;2022-08-11T15:17:44;30.20;32.70
17452;DHT22;8843;48.838;9.324;2022-08-11T15:20:20;30.10;33.60
17452;DHT22;8843;48.838;9.324;2022-08-11T15:23:07;30.00;34.30
17452;DHT22;8843;48.838;9.324;2022-08-11T15:25:55;29.90;35.90
17452;DHT22;8843;48.838;9.324;2022-08-11T15:28:24;29.80;33.00
17452;DHT22;8843;48.838;9.324;2022-08-11T15:31:11;29.70;36.30
17452;DHT22;8843;48.838;9.324;2022-08-11T15:34:01;29.40;37.30
17452;DHT22;8843;48.838;9.324;2022-08-11T15:36:48;29.60;34.50
17452;DHT22;8843;48.838;9.324;2022-08-11T15:39:37;29.60;35.40
17452;DHT22;8843;48.838;9.324;2022-08-11T15:42:25;29.70;34.30
17452;DHT22;8843;48.838;9.324;2022-08-11T15:45:12;29.30;38.10
17452;DHT22;8843;48.838;9.324;2022-08-11T15:48:01;29.40;34.70
17452;DHT22;8843;48.838;9.324;2022-08-11T15:50:31;29.20;34.20
17452;DHT22;8843;48.838;9.324;2022-08-11T15:53:02;29.10;36.10
17452;DHT22;8843;48.838;9.324;2022-08-11T15:55:30;29.10;35.80
17452;DHT22;8843;48.838;9.324;2022-08-11T15:58:02;28.90;36.20
17452;DHT22;8843;48.838;9.324;2022-08-11T16:00:48;29.10;37.10
17452;DHT22;8843;48.838;9.324;2022-08-11T16:03:38;29.20;34.60
17452;DHT22;8843;48.838;9.324;2022-08-11T16:06:32;29.00;36.50
17452;DHT22;8843;48.838;9.324;2022-08-11T16:09:02;29.00;36.00
17452;DHT22;8843;48.838;9.324;2022-08-11T16:11:33;29.00;36.60
17452;DHT22;8843;48.838;9.324;2022-08-11T16:14:02;28.90;35.60
17452;DHT22;8843;48.838;9.324;2022-08-11T16:16:49;28.80;35.60
17452;DHT22;8843;48.838;9.324;2022-08-11T16:19:18;28.70;38.00
17452;DHT22;8843;48.838;9.324;2022-08-11T16:21:48;28.90;34.60
17452;DHT22;8843;48.838;9.324;2022-08-11T16:24:18;28.80;35.50
17452;DHT22;8843;48.838;9.324;2022-08-11T16:26:49;28.80;36.70
17452;DHT22;8843;48.838;9.324;2022-08-11T16:29:16;28.70;35.80
17452;DHT22;8843;48.838;9.324;2022-08-11T16:31:44;28.60;36.60
17452;DHT22;8843;48.838;9.324;2022-08-11T16:34:32;28.60;36.70
17452;DHT22;8843;48.838;9.324;2022-08-11T16:37:18;28.50;35.40
17452;DHT22;8843;48.838;9.324;2022-08-11T16:40:05;28.60;35.30
17452;DHT22;8843;48.838;9.324;2022-08-11T16:42:36;28.80;34.20
17452;DHT22;8843;48.838;9.324;2022-08-11T16:45:22;28.70;36.80
17452;DHT22;8843;48.838;9.324;2022-08-11T16:48:07;28.40;37.60
17452;DHT22;8843;48.838;9.324;2022-08-11T16:50:35;28.30;36.70
17452;DHT22;8843;48.838;9.324;2022-08-11T16:53:03;28.20;36.10
17452;DHT22;8843;48.838;9.324;2022-08-11T16:55:30;28.30;35.60
17452;DHT22;8843;48.838;9.324;2022-08-11T16:58:01;28.30;37.10
17452;DHT22;8843;48.838;9.324;2022-08-11T17:00:47;28.20;37.40
17452;DHT22;8843;48.838;9.324;2022-08-11T17:03:16;28.30;38.20
17452;DHT22;8843;48.838;9.324;2022-08-11T17:06:11;28.30;35.80
17452;DHT22;8843;48.838;9.324;2022-08-11T17:08:57;28.40;36.50
17452;DHT22;8843;48.838;9.324;2022-08-11T17:11:50;28.20;36.00
17452;DHT22;8843;48.838;9.324;2022-08-11T17:14:40;28.20;35.40
17452;DHT22;8843;48.838;9.324;2022-08-11T17:17:12;28.20;35.50
17452;DHT22;8843;48.838;9.324;2022-08-11T17:19:44;28.10;35.90
17452;DHT22;8843;48.838;9.324;2022-08-11T17:22:13;28.00;37.40
17452;DHT22;8843;48.838;9.324;2022-08-11T17:24:58;27.70;39.00
17452;DHT22;8843;48.838;9.324;2022-08-11T17:27:27;27.70;38.70
17452;DHT22;8843;48.838;9.324;2022-08-11T17:29:58;27.80;36.20
17452;DHT22;8843;48.838;9.324;2022-08-11T17:32:30;27.80;38.00
17452;DHT22;8843;48.838;9.324;2022-08-11T17:35:20;27.90;36.60
17452;DHT22;8843;48.838;9.324;2022-08-11T17:38:02;27.90;37.30
17452;DHT22;8843;48.838;9.324;2022-08-11T17:40:31;27.80;36.10
17452;DHT22;8843;48.838;9.324;2022-08-11T17:43:03;27.90;36.20